Time;durP1;ratioP1;P1;durP2;ratioP2;P2;SDS_P1;SDS_P2;PMS_P1;PMS_P2;Temp;Humidity;BMP_temperature;BMP_pressure;BME280_temperature;BME280_humidity;BME280_pressure;Samples;Min_cycle;Max_cycle;Signal;HPM_P1;HPM_P2
2022/05/20 00:01:48;;;;;;;18.63;11.48;;;13.00;99.90;;;;;;5113764;28;20044;-73
2022/05/20 00:04:14;;;;;;;14.27;10.35;;;12.90;99.90;;;;;;5113788;28;20447;-75
2022/05/20 00:06:39;;;;;;;13.45;10.15;;;13.00;99.90;;;;;;5113456;28;20035;-74
2022/05/20 00:09:05;;;;;;;18.50;10.75;;;12.60;99.90;;;;;;5113791;28;20399;-73
2022/05/20 00:11:31;;;;;;;18.20;11.48;;;12.40;99.90;;;;;;5113455;28;20050;-73
2022/05/20 00:13:57;;;;;;;17.52;11.40;;;12.70;99.90;;;;;;5113684;28;20062;-76
2022/05/20 00:16:23;;;;;;;16.30;11.57;;;12.30;99.90;;;;;;5113625;28;20487;-77
2022/05/20 00:18:49;;;;;;;19.77;11.95;;;12.40;99.90;;;;;;5113471;28;20044;-75
2022/05/20 00:21:15;;;;;;;20.20;13.02;;;12.50;99.90;;;;;;5112134;28;20047;-74
2022/05/20 00:23:41;;;;;;;19.80;12.07;;;12.60;99.90;;;;;;5113213;28;20395;-76
2022/05/20 00:26:06;;;;;;;18.48;11.10;;;12.40;99.90;;;;;;5112641;28;20138;-76
2022/05/20 00:28:33;;;;;;;18.33;11.93;;;12.20;99.90;;;;;;5113541;28;20044;-77
2022/05/20 00:31:06;;;;;;;24.00;13.10;;;12.20;99.90;;;;;;5113436;28;20047;-74
2022/05/20 00:33:33;;;;;;;18.23;13.18;;;12.00;99.90;;;;;;5113235;28;20060;-75
2022/05/20 00:35:59;;;;;;;19.85;14.50;;;12.10;99.90;;;;;;5113070;28;20051;-75
2022/05/20 00:38:26;;;;;;;22.90;15.27;;;11.90;99.90;;;;;;5113266;28;20051;-73
2022/05/20 00:40:54;;;;;;;21.85;16.27;;;12.20;99.90;;;;;;5113358;28;20057;-74
2022/05/20 00:43:26;;;;;;;24.17;16.70;;;12.10;99.90;;;;;;5113109;28;20116;-73
2022/05/20 00:45:53;;;;;;;27.67;18.27;;;12.00;99.90;;;;;;5112971;28;20139;-73
2022/05/20 00:48:19;;;;;;;30.00;19.85;;;11.90;99.90;;;;;;5112879;28;20093;-74
2022/05/20 00:50:51;;;;;;;;;;;12.10;99.90;;;;;;5112858;28;20138;-73
2022/05/20 00:53:19;;;;;;;32.78;22.63;;;12.30;99.90;;;;;;5112951;28;19924;-73
2022/05/20 00:55:46;;;;;;;34.80;23.80;;;11.80;99.90;;;;;;5111817;28;20051;-72
2022/05/20 00:58:29;;;;;;;34.08;23.67;;;12.20;99.90;;;;;;5112898;28;20130;-73
2022/05/20 01:00:56;;;;;;;36.03;24.38;;;12.10;99.90;;;;;;5112846;28;20055;-75
2022/05/20 01:03:28;;;;;;;39.50;24.48;;;12.10;99.90;;;;;;5112721;28;20146;-74
2022/05/20 01:05:56;;;;;;;38.92;24.65;;;11.90;99.90;;;;;;5113270;28;20105;-74
2022/05/20 01:08:27;;;;;;;35.80;23.20;;;12.00;99.90;;;;;;5115154;28;20071;-75
2022/05/20 01:10:54;;;;;;;32.03;21.80;;;12.00;99.90;;;;;;5116655;28;20043;-74
2022/05/20 01:13:23;;;;;;;36.78;23.08;;;11.70;99.90;;;;;;5114427;28;20126;-74
2022/05/20 01:15:49;;;;;;;36.38;20.88;;;11.90;99.90;;;;;;5115839;28;20048;-74
2022/05/20 01:18:15;;;;;;;32.50;21.13;;;12.10;99.90;;;;;;5114514;28;20058;-72
2022/05/20 01:20:47;;;;;;;31.05;19.80;;;11.70;99.90;;;;;;5112861;28;20091;-72
2022/05/20 01:23:21;;;;;;;31.63;19.63;;;11.90;99.90;;;;;;5113043;28;20090;-72
2022/05/20 01:25:49;;;;;;;35.25;18.08;;;11.80;99.90;;;;;;5112643;28;20083;-73
2022/05/20 01:28:17;;;;;;;29.08;18.02;;;12.00;99.90;;;;;;5112418;28;20181;-73
2022/05/20 01:30:53;;;;;;;30.27;17.98;;;11.80;99.90;;;;;;5112789;28;20051;-74
2022/05/20 01:33:23;;;;;;;28.08;18.17;;;11.90;99.90;;;;;;5112689;28;20051;-74
2022/05/20 01:35:49;;;;;;;30.35;18.50;;;11.80;99.90;;;;;;5112577;28;20482;-74
2022/05/20 01:38:15;;;;;;;33.47;19.05;;;11.90;99.90;;;;;;5115977;28;20051;-74
2022/05/20 01:40:56;;;;;;;31.80;18.77;;;11.90;99.90;;;;;;5116551;28;20048;-74
2022/05/20 01:43:41;;;;;;;30.52;18.80;;;11.90;99.90;;;;;;5118720;28;20071;-74
2022/05/20 01:46:33;;;;;;;30.52;20.63;;;11.80;99.90;;;;;;5118363;27;20463;-74
2022/05/20 01:49:08;;;;;;;31.70;20.13;;;12.00;99.90;;;;;;5118881;28;20051;-74
2022/05/20 01:51:45;;;;;;;33.95;21.40;;;11.90;99.90;;;;;;5118357;27;20099;-74
2022/05/20 01:54:19;;;;;;;32.10;22.08;;;11.60;99.90;;;;;;5118113;28;20445;-75
2022/05/20 01:56:50;;;;;;;35.53;23.02;;;11.80;99.90;;;;;;5117255;28;20048;-76
2022/05/20 01:59:32;;;;;;;37.05;23.33;;;11.90;99.90;;;;;;5116405;28;20040;-75
2022/05/20 02:02:01;;;;;;;34.45;25.73;;;11.60;99.90;;;;;;5116427;28;20085;-75
2022/05/20 02:04:39;;;;;;;40.95;26.17;;;11.70;99.90;;;;;;5115974;27;20044;-75
2022/05/20 02:07:10;;;;;;;44.78;26.15;;;11.50;99.90;;;;;;5116154;28;20117;-75
2022/05/20 02:09:42;;;;;;;35.58;25.55;;;11.60;99.90;;;;;;5116034;28;20045;-75
2022/05/20 02:12:10;;;;;;;37.67;24.27;;;11.70;99.90;;;;;;5116130;28;20125;-75
2022/05/20 02:14:52;;;;;;;41.17;26.42;;;11.70;99.90;;;;;;5116024;28;20047;-75
2022/05/20 02:17:34;;;;;;;38.25;23.75;;;11.10;99.90;;;;;;5115893;28;20047;-75
2022/05/20 02:20:22;;;;;;;40.88;25.60;;;11.30;99.90;;;;;;5114749;28;20066;-74
2022/05/20 02:23:05;;;;;;;35.30;24.58;;;11.10;99.90;;;;;;5115983;28;20083;-75
2022/05/20 02:25:38;;;;;;;36.67;26.50;;;11.30;99.90;;;;;;5114701;28;20091;-76
2022/05/20 02:28:29;;;;;;;38.53;26.88;;;10.80;99.90;;;;;;5115612;28;20491;-74
2022/05/20 02:30:56;;;;;;;42.75;26.33;;;11.30;99.90;;;;;;5115542;28;20047;-73
2022/05/20 02:33:23;;;;;;;41.60;26.55;;;11.20;99.90;;;;;;5115179;28;20085;-73
2022/05/20 02:35:49;;;;;;;45.17;25.80;;;11.10;99.90;;;;;;5115504;28;20559;-73
2022/05/20 02:38:17;;;;;;;38.50;25.85;;;11.30;99.90;;;;;;5115489;28;20043;-75
2022/05/20 02:40:46;;;;;;;37.60;25.50;;;11.20;99.90;;;;;;5115473;28;20126;-75
2022/05/20 02:43:12;;;;;;;39.00;26.08;;;10.70;99.90;;;;;;5114346;28;20418;-74
2022/05/20 02:45:39;;;;;;;50.15;27.63;;;11.50;99.90;;;;;;5115770;28;20455;-75
2022/05/20 02:48:05;;;;;;;39.53;26.75;;;11.00;99.90;;;;;;5114099;28;20051;-75
2022/05/20 02:50:31;;;;;;;47.22;26.30;;;11.30;99.90;;;;;;5115247;28;20047;-76
2022/05/20 02:52:57;;;;;;;45.83;28.55;;;11.30;99.90;;;;;;5118381;28;20043;-74
2022/05/20 02:55:24;;;;;;;51.85;27.25;;;11.60;99.90;;;;;;5116645;28;20048;-75
2022/05/20 02:57:50;;;;;;;37.85;25.27;;;11.20;99.90;;;;;;5117504;27;20047;-76
2022/05/20 03:05:45;;;;;;;33.83;23.45;;;11.50;99.90;;;;;;5115895;28;20462;-75
2022/05/20 03:08:11;;;;;;;;;;;10.90;99.90;;;;;;5115554;28;20067;-76
2022/05/20 03:10:36;;;;;;;31.38;22.45;;;11.10;99.90;;;;;;5114121;28;20027;-76
2022/05/20 03:13:04;;;;;;;37.00;23.92;;;11.10;99.90;;;;;;5114735;28;20040;-75
2022/05/20 03:15:31;;;;;;;37.42;25.27;;;10.70;99.90;;;;;;5115045;28;20043;-77
2022/05/20 03:17:56;;;;;;;31.63;23.63;;;10.90;99.90;;;;;;5113702;28;20051;-75
2022/05/20 03:20:23;;;;;;;29.30;22.80;;;11.10;99.90;;;;;;5114584;28;20043;-76
2022/05/20 03:22:49;;;;;;;35.45;24.38;;;12.30;99.90;;;;;;5114440;28;20187;-75
2022/05/20 03:25:15;;;;;;;35.08;24.00;;;12.30;99.90;;;;;;5114747;28;20051;-74
2022/05/20 03:27:41;;;;;;;37.03;24.17;;;10.70;99.90;;;;;;5114585;28;20167;-76
2022/05/20 03:30:10;;;;;;;41.55;25.15;;;10.70;99.90;;;;;;5114486;28;20047;-76
2022/05/20 03:32:36;;;;;;;34.05;24.38;;;10.70;99.90;;;;;;5114085;28;20445;-76
2022/05/20 03:35:02;;;;;;;;;;;11.30;99.90;;;;;;5114725;28;20052;-76
2022/05/20 03:37:27;;;;;;;40.47;23.52;;;10.40;99.90;;;;;;5114327;28;20071;-76
2022/05/20 03:39:55;;;;;;;32.28;23.60;;;10.70;99.90;;;;;;5114188;28;20040;-78
2022/05/20 03:42:23;;;;;;;43.88;24.27;;;10.80;99.90;;;;;;5114388;28;20395;-77
2022/05/20 03:44:49;;;;;;;593.65;42.38;;;11.20;99.90;;;;;;5114077;28;20047;-78
2022/05/20 03:47:15;;;;;;;122.00;25.98;;;11.20;99.90;;;;;;5114091;28;20130;-77
2022/05/20 03:49:45;;;;;;;444.85;30.17;;;10.70;99.90;;;;;;5114033;28;20040;-76
2022/05/20 03:52:11;;;;;;;45.20;22.30;;;10.50;99.90;;;;;;5113802;28;20046;-76
2022/05/20 03:54:37;;;;;;;60.17;22.67;;;10.60;99.90;;;;;;5114279;28;20044;-76
2022/05/20 03:57:03;;;;;;;55.03;24.42;;;10.80;99.90;;;;;;5113884;28;20047;-76
2022/05/20 03:59:33;;;;;;;80.45;22.88;;;10.50;99.90;;;;;;5113672;28;20051;-77
2022/05/20 04:01:59;;;;;;;77.65;22.33;;;10.80;99.90;;;;;;5114378;28;20044;-75
2022/05/20 04:04:26;;;;;;;35.13;20.98;;;10.50;99.90;;;;;;5116194;28;20092;-77
2022/05/20 04:06:52;;;;;;;52.33;23.05;;;10.70;99.90;;;;;;5114355;28;20051;-77
2022/05/20 04:09:18;;;;;;;120.75;24.40;;;11.70;99.90;;;;;;5114919;28;20094;-78
2022/05/20 04:11:44;;;;;;;25.63;19.70;;;10.70;99.90;;;;;;5115746;28;20059;-76
2022/05/20 04:14:11;;;;;;;48.60;22.23;;;11.60;99.90;;;;;;5113146;28;20054;-77
2022/05/20 04:16:37;;;;;;;38.40;20.52;;;10.80;99.90;;;;;;5114081;28;20054;-78
2022/05/20 04:19:03;;;;;;;51.60;23.33;;;11.40;99.90;;;;;;5113663;28;20047;-78
2022/05/20 04:21:28;;;;;;;30.48;20.98;;;10.90;99.90;;;;;;5113441;28;20455;-76
2022/05/20 04:23:54;;;;;;;28.65;22.05;;;10.70;99.90;;;;;;5113314;28;20122;-77
2022/05/20 04:26:20;;;;;;;33.50;22.52;;;11.20;99.90;;;;;;5113498;27;20043;-76
2022/05/20 04:28:45;;;;;;;34.58;22.83;;;11.40;99.90;;;;;;5113301;28;20047;-76
2022/05/20 04:31:12;;;;;;;38.92;23.27;;;11.40;99.90;;;;;;5113312;28;20051;-78
2022/05/20 04:33:38;;;;;;;33.42;21.90;;;11.60;99.90;;;;;;5113306;28;20055;-78
2022/05/20 04:36:06;;;;;;;42.72;24.05;;;11.50;99.90;;;;;;5112110;28;20043;-77
2022/05/20 04:38:31;;;;;;;37.10;23.95;;;11.90;99.90;;;;;;5113349;28;20111;-77
2022/05/20 04:49:10;;;;;;;35.47;21.88;;;11.50;99.90;;;;;;5113138;28;20098;-77
2022/05/20 04:51:37;;;;;;;38.65;22.42;;;11.50;99.90;;;;;;5113135;28;20455;-77
2022/05/20 04:56:47;;;;;;;33.22;20.33;;;11.20;99.90;;;;;;5112784;28;20196;-78
2022/05/20 04:59:13;;;;;;;35.03;22.90;;;11.10;99.90;;;;;;5113135;28;20530;-79
2022/05/20 05:01:40;;;;;;;32.05;21.77;;;11.30;99.90;;;;;;5113099;28;20494;-82
2022/05/20 05:04:06;;;;;;;28.58;21.30;;;10.90;99.90;;;;;;5112978;28;20051;-79
2022/05/20 05:06:32;;;;;;;33.97;21.90;;;11.70;99.90;;;;;;5112948;28;20050;-80
2022/05/20 05:08:58;;;;;;;36.15;23.00;;;11.30;99.90;;;;;;5112928;28;20040;-79
2022/05/20 05:11:24;;;;;;;31.35;21.73;;;11.60;99.90;;;;;;5111973;28;20407;-79
2022/05/20 05:13:49;;;;;;;34.67;21.27;;;12.00;99.90;;;;;;5117212;28;20083;-78
2022/05/20 05:16:15;;;;;;;33.80;23.08;;;11.50;99.90;;;;;;5117352;28;20047;-79
2022/05/20 05:18:40;;;;;;;29.33;21.58;;;12.60;99.90;;;;;;5116986;28;20039;-78
2022/05/20 05:21:06;;;;;;;29.95;21.25;;;11.60;99.90;;;;;;5117066;28;20047;-79
2022/05/20 05:23:32;;;;;;;31.80;21.58;;;11.90;99.90;;;;;;5117096;28;20039;-79
2022/05/20 05:25:58;;;;;;;29.58;20.85;;;11.80;99.90;;;;;;5117025;28;20547;-78
2022/05/20 05:28:23;;;;;;;31.20;22.08;;;11.70;99.90;;;;;;5116945;28;20479;-80
2022/05/20 05:30:51;;;;;;;32.55;21.45;;;12.30;99.90;;;;;;5117236;27;20050;-78
2022/05/20 05:33:19;;;;;;;33.00;21.38;;;11.90;99.90;;;;;;5116740;28;20142;-77
2022/05/20 05:35:45;;;;;;;37.53;22.50;;;12.00;99.90;;;;;;5116804;28;20131;-77
2022/05/20 05:38:11;;;;;;;34.17;21.65;;;12.00;99.90;;;;;;5115458;28;20054;-76
2022/05/20 05:40:37;;;;;;;30.95;21.33;;;12.10;99.90;;;;;;5116640;28;20039;-77
2022/05/20 05:43:03;;;;;;;31.77;22.05;;;12.20;99.90;;;;;;5116881;28;20043;-77
2022/05/20 05:45:31;;;;;;;34.80;20.85;;;12.30;99.90;;;;;;5116673;28;20047;-76
2022/05/20 05:48:03;;;;;;;34.78;22.33;;;12.40;99.90;;;;;;5116700;28;20043;-77
2022/05/20 05:50:30;;;;;;;34.00;20.33;;;13.50;99.90;;;;;;5116350;28;20483;-77
2022/05/20 05:53:07;;;;;;;31.85;21.90;;;12.90;99.90;;;;;;5116280;28;20040;-78
2022/05/20 05:55:33;;;;;;;32.60;20.20;;;12.70;99.90;;;;;;5116647;28;20054;-77
2022/05/20 05:57:59;;;;;;;33.95;19.63;;;13.00;99.90;;;;;;5116312;28;20043;-77
2022/05/20 06:00:25;;;;;;;28.73;20.67;;;13.00;99.90;;;;;;5116295;28;20128;-76
2022/05/20 06:02:52;;;;;;;31.42;20.45;;;13.20;99.90;;;;;;5116232;28;20491;-77
2022/05/20 06:05:17;;;;;;;31.02;19.92;;;13.20;99.90;;;;;;5116176;28;20044;-76
2022/05/20 06:07:43;;;;;;;27.75;19.10;;;13.80;99.90;;;;;;5115942;28;20126;-76
2022/05/20 06:10:10;;;;;;;28.30;17.45;;;13.70;99.90;;;;;;5116257;28;20047;-76
2022/05/20 06:12:36;;;;;;;28.52;18.02;;;13.80;99.90;;;;;;5114688;28;20050;-76
2022/05/20 06:15:04;;;;;;;31.88;17.85;;;13.30;99.90;;;;;;5116051;28;20614;-76
2022/05/20 06:17:31;;;;;;;25.98;17.80;;;13.70;99.90;;;;;;5114761;28;20054;-78
2022/05/20 06:19:56;;;;;;;29.17;17.35;;;13.70;99.90;;;;;;5115775;28;20479;-76
2022/05/20 06:22:22;;;;;;;24.83;15.43;;;13.60;99.90;;;;;;5115571;28;20040;-76
2022/05/20 06:24:47;;;;;;;22.83;15.05;;;13.90;99.90;;;;;;5115775;28;20039;-76
2022/05/20 06:27:13;;;;;;;20.85;13.00;;;14.00;99.90;;;;;;5115599;28;20071;-76
2022/05/20 06:29:39;;;;;;;22.75;14.15;;;13.90;99.90;;;;;;5115702;28;20047;-76
2022/05/20 06:32:05;;;;;;;21.95;14.82;;;14.20;99.90;;;;;;5097325;28;20048;-76
2022/05/20 06:39:48;;;;;;;23.63;15.32;;;14.00;99.90;;;;;;5115338;28;20048;-76
2022/05/20 06:40:10;;;;;;;22.38;14.48;;;14.00;99.90;;;;;;5115540;28;20047;-74
2022/05/20 06:42:36;;;;;;;20.75;12.65;;;14.40;99.90;;;;;;5115262;28;20047;-75
2022/05/20 06:45:02;;;;;;;19.52;13.00;;;14.00;99.90;;;;;;5115237;28;20050;-76
2022/05/20 06:47:27;;;;;;;21.63;12.82;;;14.80;99.90;;;;;;5115104;28;20503;-74
2022/05/20 06:49:53;;;;;;;21.65;12.10;;;14.20;99.90;;;;;;5097327;28;20046;-75
2022/05/20 06:52:19;;;;;;;18.90;13.73;;;14.30;99.90;;;;;;5115431;28;20485;-77
2022/05/20 06:54:44;;;;;;;19.95;12.93;;;14.50;99.90;;;;;;5115160;28;20494;-75
2022/05/20 06:57:10;;;;;;;19.20;13.10;;;14.40;99.90;;;;;;5115317;28;20437;-75
2022/05/20 06:59:36;;;;;;;;;;;14.40;99.90;;;;;;5115406;28;20048;-75
2022/05/20 07:02:01;;;;;;;24.80;13.60;;;14.50;99.90;;;;;;5114976;28;19930;-74
2022/05/20 07:04:31;;;;;;;18.83;13.38;;;14.70;99.90;;;;;;5114902;27;20047;-76
2022/05/20 07:06:58;;;;;;;17.52;12.15;;;14.50;99.90;;;;;;5114966;28;20053;-76
2022/05/20 07:09:24;;;;;;;18.45;12.43;;;14.80;99.90;;;;;;5114885;28;20479;-75
2022/05/20 07:11:50;;;;;;;17.20;12.05;;;14.40;99.90;;;;;;5114749;28;20126;-73
2022/05/20 07:14:15;;;;;;;;;;;15.00;99.90;;;;;;5115169;27;20126;-75
2022/05/20 07:16:41;;;;;;;20.23;11.80;;;14.70;99.90;;;;;;5114945;28;20017;-75
2022/05/20 07:19:07;;;;;;;18.85;11.88;;;14.80;99.90;;;;;;5114904;28;20043;-75
2022/05/20 07:21:33;;;;;;;;;;;15.20;99.90;;;;;;5115151;28;20051;-74
2022/05/20 07:24:00;;;;;;;16.23;8.80;;;15.20;99.90;;;;;;5114723;28;19926;-75
2022/05/20 07:26:26;;;;;;;16.30;8.90;;;15.60;99.90;;;;;;5114429;28;20047;-74
2022/05/20 07:28:51;;;;;;;16.20;8.95;;;15.60;99.90;;;;;;5114383;28;20050;-73
2022/05/20 07:31:17;;;;;;;;;;;15.50;99.90;;;;;;5113988;28;20047;-74
2022/05/20 07:33:43;;;;;;;13.27;7.38;;;15.50;99.90;;;;;;5114180;28;19992;-74
2022/05/20 07:36:09;;;;;;;14.95;8.52;;;15.40;99.90;;;;;;5114003;28;20059;-73
2022/05/20 07:38:35;;;;;;;13.07;8.95;;;16.00;99.90;;;;;;5114322;28;20047;-73
2022/05/20 07:41:01;;;;;;;10.68;6.90;;;16.10;99.90;;;;;;5114251;27;20051;-73
2022/05/20 07:43:27;;;;;;;9.48;5.78;;;16.60;99.90;;;;;;5113990;28;20192;-75
2022/05/20 07:45:53;;;;;;;;;;;16.60;99.90;;;;;;5088878;28;20491;-74
2022/05/20 07:48:20;;;;;;;9.90;5.75;;;16.70;99.90;;;;;;5073211;28;19920;-73
2022/05/20 07:50:48;;;;;;;13.45;6.50;;;16.50;99.90;;;;;;5074247;28;20095;-73
2022/05/20 07:53:20;;;;;;;11.20;7.72;;;16.40;99.90;;;;;;5091210;28;20036;-72
2022/05/20 07:55:59;;;;;;;13.90;8.02;;;16.80;99.90;;;;;;5091623;28;20067;-71
2022/05/20 07:58:30;;;;;;;14.55;7.93;;;16.70;99.90;;;;;;5093314;28;20101;-74
2022/05/20 08:00:58;;;;;;;10.05;6.15;;;17.40;99.90;;;;;;5093014;28;20131;-73
2022/05/20 08:06:14;;;;;;;11.20;7.20;;;17.10;99.90;;;;;;5093360;28;20101;-71
2022/05/20 08:08:41;;;;;;;10.77;6.88;;;17.20;99.90;;;;;;5092415;28;20060;-72
2022/05/20 08:11:07;;;;;;;10.90;6.88;;;17.40;99.90;;;;;;5093182;28;20040;-71
2022/05/20 08:13:32;;;;;;;13.35;7.07;;;17.50;99.90;;;;;;5092903;28;20097;-74
2022/05/20 08:15:58;;;;;;;;;;;18.70;99.90;;;;;;5093433;28;20044;-73
2022/05/20 08:18:24;;;;;;;10.05;4.95;;;17.10;99.90;;;;;;5092736;28;19920;-74
2022/05/20 08:20:49;;;;;;;;;;;17.10;99.90;;;;;;5093356;28;20044;-72
2022/05/20 08:23:15;;;;;;;12.32;7.13;;;17.10;99.90;;;;;;5092461;28;19924;-72
2022/05/20 08:25:40;;;;;;;;;;;17.10;99.90;;;;;;5092940;28;20051;-70
2022/05/20 08:28:06;;;;;;;8.48;3.92;;;18.40;99.90;;;;;;5092929;28;19964;-71
2022/05/20 08:30:33;;;;;;;6.47;4.00;;;17.60;99.90;;;;;;5092616;28;20109;-70
2022/05/20 08:32:58;;;;;;;8.23;4.85;;;17.60;99.90;;;;;;5092533;28;20472;-70
2022/05/20 08:35:26;;;;;;;;;;;17.40;99.90;;;;;;5092786;28;20131;-70
2022/05/20 08:37:52;;;;;;;8.50;5.28;;;17.70;99.90;;;;;;5092625;28;20375;-70
2022/05/20 08:40:29;;;;;;;;;;;17.70;99.90;;;;;;5092413;28;20051;-70
2022/05/20 08:42:58;;;;;;;9.43;5.97;;;17.80;99.90;;;;;;5092661;28;19927;-70
2022/05/20 08:45:27;;;;;;;8.43;5.72;;;18.20;99.90;;;;;;5092300;28;20044;-69
2022/05/20 08:47:53;;;;;;;9.55;5.60;;;18.00;99.90;;;;;;5091663;28;20052;-74
2022/05/20 08:50:34;;;;;;;7.15;5.18;;;18.10;99.90;;;;;;5075432;28;20050;-74
2022/05/20 08:53:00;;;;;;;10.05;5.55;;;18.20;99.90;;;;;;5088326;28;20036;-77
2022/05/20 08:55:26;;;;;;;;;;;18.40;99.90;;;;;;5090226;28;20059;-73
2022/05/20 08:58:03;;;;;;;8.25;5.50;;;18.10;99.90;;;;;;5091071;28;19920;-75
2022/05/20 09:00:29;;;;;;;10.23;5.20;;;18.30;99.90;;;;;;5091357;28;20058;-76
2022/05/20 09:02:56;;;;;;;9.75;4.90;;;18.20;99.90;;;;;;5088032;28;20139;-77
2022/05/20 09:05:31;;;;;;;5.20;4.13;;;18.20;99.90;;;;;;5090841;28;20063;-75
2022/05/20 09:08:01;;;;;;;5.68;4.07;;;18.30;99.90;;;;;;5091730;28;20426;-76
2022/05/20 09:10:31;;;;;;;12.27;5.15;;;18.50;99.90;;;;;;5087608;28;20522;-77
2022/05/20 09:15:43;;;;;;;7.72;5.03;;;18.40;99.90;;;;;;5089894;28;20040;-76
2022/05/20 09:16:13;;;;;;;9.20;6.25;;;18.60;99.90;;;;;;5091217;28;20051;-75
2022/05/20 09:18:41;;;;;;;9.93;5.53;;;18.80;99.90;;;;;;5090791;28;20075;-73
2022/05/20 09:21:15;;;;;;;9.65;5.60;;;18.80;99.90;;;;;;5091123;28;20052;-74
2022/05/20 09:23:51;;;;;;;10.45;5.30;;;18.70;99.90;;;;;;5089816;28;20123;-74
2022/05/20 09:26:23;;;;;;;7.05;5.25;;;18.90;99.90;;;;;;5090339;28;20097;-75
2022/05/20 09:29:00;;;;;;;10.02;5.38;;;18.90;99.90;;;;;;5091861;28;20137;-75
2022/05/20 09:31:43;;;;;;;9.82;5.40;;;19.00;99.90;;;;;;5087981;28;20097;-73
2022/05/20 09:34:29;;;;;;;10.50;5.10;;;19.20;99.90;;;;;;5089579;28;20205;-74
2022/05/20 09:37:01;;;;;;;9.32;4.97;;;19.00;99.90;;;;;;5091229;28;20129;-74
2022/05/20 09:39:32;;;;;;;7.75;4.65;;;19.40;99.90;;;;;;5090494;28;20040;-75
2022/05/20 09:42:07;;;;;;;7.65;4.88;;;19.20;99.90;;;;;;5090961;28;20048;-75
2022/05/20 09:44:42;;;;;;;7.65;4.43;;;19.00;99.90;;;;;;5088808;28;20056;-74
2022/05/20 09:47:45;;;;;;;8.48;4.53;;;19.20;99.90;;;;;;5090408;28;20488;-74
2022/05/20 09:50:23;;;;;;;8.60;4.63;;;19.20;99.90;;;;;;5090919;28;20487;-73
2022/05/20 09:53:08;;;;;;;7.63;4.60;;;19.10;99.90;;;;;;5089340;28;20115;-73
2022/05/20 09:55:38;;;;;;;8.13;4.35;;;19.20;99.90;;;;;;5091215;28;20051;-74
2022/05/20 09:58:09;;;;;;;9.48;4.45;;;19.50;99.90;;;;;;5092395;28;20094;-73
2022/05/20 10:00:36;;;;;;;5.95;3.92;;;19.50;99.90;;;;;;5096130;28;20105;-76
2022/05/20 10:03:20;;;;;;;8.63;4.55;;;19.10;99.90;;;;;;5094994;28;20047;-70
2022/05/20 10:06:09;;;;;;;6.75;4.50;;;19.20;99.90;;;;;;5094772;28;20458;-68
2022/05/20 10:08:45;;;;;;;10.30;4.60;;;19.10;99.90;;;;;;5091152;28;20036;-74
2022/05/20 10:11:19;;;;;;;9.77;4.70;;;19.10;99.90;;;;;;5089715;28;20048;-72
2022/05/20 10:13:53;;;;;;;10.20;4.70;;;18.90;99.90;;;;;;5094093;28;20438;-73
2022/05/20 10:16:26;;;;;;;6.55;4.15;;;18.70;99.90;;;;;;5095221;28;20047;-72
2022/05/20 10:19:06;;;;;;;8.63;4.75;;;18.80;99.90;;;;;;5093942;28;20048;-72
2022/05/20 10:21:44;;;;;;;8.68;4.38;;;18.80;99.90;;;;;;5095234;28;20429;-71
2022/05/20 10:24:38;;;;;;;7.55;4.63;;;19.10;99.90;;;;;;5094561;28;20059;-74
2022/05/20 10:27:25;;;;;;;7.95;4.35;;;18.80;99.90;;;;;;5093602;28;20510;-72
2022/05/20 10:32:53;;;;;;;8.90;5.07;;;18.90;99.90;;;;;;5104631;28;20097;-74
2022/05/20 10:35:27;;;;;;;5.38;4.65;;;18.90;99.90;;;;;;5115593;28;20111;-73
2022/05/20 10:38:13;;;;;;;9.38;4.95;;;19.20;99.90;;;;;;5115284;28;20491;-74
2022/05/20 10:41:10;;;;;;;7.60;4.38;;;18.90;99.90;;;;;;5114314;28;20063;-72
2022/05/20 10:50:15;;;;;;;7.82;4.78;;;19.20;99.90;;;;;;5114984;28;20097;-74
2022/05/20 10:53:19;;;;;;;7.47;4.60;;;19.20;99.90;;;;;;5114911;28;20040;-73
2022/05/20 10:55:48;;;;;;;6.78;4.10;;;19.00;99.90;;;;;;5115058;28;20560;-73
2022/05/20 10:58:32;;;;;;;5.93;4.07;;;19.10;99.90;;;;;;5113696;28;20509;-73
2022/05/20 11:01:06;;;;;;;5.22;4.00;;;19.30;99.90;;;;;;5114997;28;20046;-76
2022/05/20 11:03:38;;;;;;;6.70;4.10;;;19.00;99.90;;;;;;5087207;28;20115;-79
2022/05/20 11:06:27;;;;;;;8.70;4.45;;;18.80;99.90;;;;;;5073691;28;20521;-73
2022/05/20 11:09:07;;;;;;;5.13;4.25;;;18.70;99.90;;;;;;5073598;28;20131;-74
2022/05/20 11:11:56;;;;;;;7.85;4.47;;;18.80;99.90;;;;;;5073961;28;20044;-73
2022/05/20 11:14:43;;;;;;;7.55;5.15;;;18.90;99.90;;;;;;5073925;28;20055;-74
2022/05/20 11:17:28;;;;;;;7.65;4.20;;;18.80;99.90;;;;;;5074278;28;20040;-73
2022/05/20 11:20:16;;;;;;;5.95;4.50;;;18.70;99.90;;;;;;5074072;28;20048;-73
2022/05/20 11:22:57;;;;;;;5.90;4.40;;;18.70;99.90;;;;;;5073813;28;20759;-75
2022/05/20 11:25:50;;;;;;;8.45;4.30;;;19.20;99.90;;;;;;5073630;28;20051;-76
2022/05/20 11:28:58;;;;;;;8.88;4.40;;;19.40;99.90;;;;;;5072842;28;20049;-73
2022/05/20 11:31:30;;;;;;;;;;;19.30;99.90;;;;;;5072878;28;20095;-75
2022/05/20 11:34:09;;;;;;;7.90;4.65;;;19.30;99.90;;;;;;5073293;28;19924;-73
2022/05/20 11:36:55;;;;;;;11.23;4.60;;;19.20;99.90;;;;;;5073596;28;20381;-73
2022/05/20 11:39:49;;;;;;;6.13;4.60;;;19.70;99.90;;;;;;5073624;28;20108;-74
2022/05/20 11:42:33;;;;;;;7.88;4.13;;;19.80;99.90;;;;;;5072375;28;20063;-75
2022/05/20 11:45:17;;;;;;;6.90;4.10;;;19.60;99.90;;;;;;5073269;28;20093;-75
2022/05/20 11:47:46;;;;;;;7.07;5.03;;;20.00;99.90;;;;;;5079228;28;20446;-74
2022/05/20 11:50:11;;;;;;;7.13;5.30;;;19.80;99.90;;;;;;5079279;28;20054;-74
2022/05/20 11:53:13;;;;;;;5.70;4.65;;;20.00;99.90;;;;;;5087736;28;20036;-77
2022/05/20 11:55:56;;;;;;;6.97;4.50;;;19.90;99.90;;;;;;5094588;28;20055;-73
2022/05/20 11:58:41;;;;;;;8.20;4.68;;;19.80;99.90;;;;;;5092256;28;20517;-75
2022/05/20 12:01:09;;;;;;;10.60;5.10;;;19.70;99.90;;;;;;5092751;28;20181;-75
2022/05/20 12:06:24;;;;;;;7.28;4.95;;;20.00;99.90;;;;;;5093169;28;20063;-75
2022/05/20 12:08:52;;;;;;;10.35;4.80;;;19.80;99.90;;;;;;5093071;28;20773;-73
2022/05/20 12:11:37;;;;;;;8.25;4.57;;;19.90;99.90;;;;;;5093254;28;20047;-74
2022/05/20 12:14:05;;;;;;;6.57;4.28;;;20.00;99.90;;;;;;5093056;28;20404;-74
2022/05/20 12:16:32;;;;;;;11.45;4.97;;;19.60;99.90;;;;;;5093077;28;20056;-74
2022/05/20 12:24:46;;;;;;;7.00;4.93;;;19.90;99.90;;;;;;5093103;28;20071;-75
2022/05/20 12:27:21;;;;;;;8.02;5.55;;;19.90;99.90;;;;;;5092661;28;20044;-73
2022/05/20 12:30:24;;;;;;;7.82;5.25;;;19.90;99.90;;;;;;5092966;28;20048;-75
2022/05/20 12:32:50;;;;;;;6.38;4.88;;;20.00;99.90;;;;;;5092407;28;20094;-76
2022/05/20 12:35:31;;;;;;;7.90;5.18;;;19.80;99.90;;;;;;5092724;28;20064;-75
2022/05/20 12:38:21;;;;;;;8.25;5.03;;;19.80;99.90;;;;;;5092468;28;20480;-74
2022/05/20 12:40:50;;;;;;;7.22;4.50;;;20.00;99.90;;;;;;5092762;28;20097;-74
2022/05/20 12:43:16;;;;;;;8.82;5.03;;;20.50;99.90;;;;;;5092669;28;20052;-74
2022/05/20 12:45:54;;;;;;;10.00;5.03;;;20.80;99.90;;;;;;5092630;28;20050;-74
2022/05/20 12:48:29;;;;;;;9.95;5.03;;;20.80;99.90;;;;;;5092933;28;20040;-72
2022/05/20 12:51:04;;;;;;;6.40;4.13;;;20.80;99.90;;;;;;5092686;28;20074;-75
2022/05/20 12:53:32;;;;;;;6.75;4.35;;;20.50;99.90;;;;;;5092465;28;20044;-79
2022/05/20 12:55:59;;;;;;;7.20;4.88;;;20.40;99.90;;;;;;5092315;28;20499;-74
2022/05/20 12:58:31;;;;;;;6.97;4.88;;;20.20;99.90;;;;;;5092305;28;20048;-75
2022/05/20 13:01:02;;;;;;;10.02;6.00;;;20.30;99.90;;;;;;5092497;28;20472;-76
2022/05/20 13:03:34;;;;;;;10.05;6.65;;;20.20;99.90;;;;;;5092713;28;20375;-76
2022/05/20 13:06:03;;;;;;;9.35;6.45;;;20.30;99.90;;;;;;5087181;28;20124;-74
2022/05/20 13:08:33;;;;;;;10.43;5.32;;;20.30;99.90;;;;;;5089593;28;20040;-75
2022/05/20 13:11:09;;;;;;;10.20;5.57;;;20.10;99.90;;;;;;5092752;28;20048;-81
2022/05/20 13:13:36;;;;;;;8.60;5.40;;;20.30;99.90;;;;;;5091770;28;20048;-75
2022/05/20 13:16:04;;;;;;;9.32;6.10;;;19.50;99.90;;;;;;5091971;28;20058;-73
2022/05/20 13:18:33;;;;;;;10.13;6.53;;;19.30;99.90;;;;;;5091742;28;20055;-77
2022/05/20 13:21:02;;;;;;;8.88;6.80;;;19.50;99.90;;;;;;5088415;28;20063;-74
2022/05/20 13:23:30;;;;;;;10.93;7.53;;;19.40;99.90;;;;;;5076039;28;20044;-74
2022/05/20 13:25:55;;;;;;;13.27;8.60;;;19.40;99.90;;;;;;5071361;28;20051;-73
2022/05/20 13:28:22;;;;;;;11.40;8.38;;;19.10;99.90;;;;;;5071785;28;20135;-75
2022/05/20 13:30:48;;;;;;;14.52;8.52;;;19.20;99.90;;;;;;5071687;28;20492;-74
2022/05/20 13:33:14;;;;;;;11.65;8.20;;;19.00;99.90;;;;;;5073362;28;20063;-75
2022/05/20 13:35:45;;;;;;;10.85;8.70;;;19.10;99.90;;;;;;5094187;28;20048;-74
2022/05/20 13:38:11;;;;;;;11.80;7.38;;;18.60;99.90;;;;;;5095183;28;20625;-74